sensor_id;sensor_type;location;lat;lon;timestamp;P1;durP1;ratioP1;P2;durP2;ratioP2
59028;SDS011;45919;51.420;5.454;2022-12-05T00:00:25;92.95;;;33.42;;
59028;SDS011;45919;51.420;5.454;2022-12-05T00:02:41;78.70;;;30.92;;
59028;SDS011;45919;51.420;5.454;2022-12-05T00:03:42;89.43;;;32.45;;
59028;SDS011;45919;51.420;5.454;2022-12-05T00:04:44;91.90;;;32.90;;
59028;SDS011;45919;51.420;5.454;2022-12-05T00:05:46;79.47;;;30.95;;
59028;SDS011;45919;51.420;5.454;2022-12-05T00:06:48;85.10;;;31.90;;
59028;SDS011;45919;51.420;5.454;2022-12-05T00:07:49;77.18;;;31.42;;
59028;SDS011;45919;51.420;5.454;2022-12-05T00:08:51;84.03;;;31.92;;
59028;SDS011;45919;51.420;5.454;2022-12-05T00:09:53;83.93;;;32.63;;
59028;SDS011;45919;51.420;5.454;2022-12-05T00:10:54;83.97;;;33.08;;
59028;SDS011;45919;51.420;5.454;2022-12-05T00:11:56;76.72;;;32.33;;
59028;SDS011;45919;51.420;5.454;2022-12-05T00:12:58;80.85;;;32.92;;
59028;SDS011;45919;51.420;5.454;2022-12-05T00:13:59;82.35;;;31.95;;
59028;SDS011;45919;51.420;5.454;2022-12-05T00:15:02;80.80;;;31.58;;
59028;SDS011;45919;51.420;5.454;2022-12-05T00:16:05;84.38;;;33.65;;
59028;SDS011;45919;51.420;5.454;2022-12-05T00:17:08;88.05;;;32.70;;
59028;SDS011;45919;51.420;5.454;2022-12-05T00:18:10;82.30;;;30.35;;
59028;SDS011;45919;51.420;5.454;2022-12-05T00:19:13;84.72;;;33.13;;
59028;SDS011;45919;51.420;5.454;2022-12-05T00:20:15;77.85;;;31.63;;
59028;SDS011;45919;51.420;5.454;2022-12-05T00:21:24;85.78;;;32.20;;
59028;SDS011;45919;51.420;5.454;2022-12-05T00:22:27;78.75;;;30.30;;
59028;SDS011;45919;51.420;5.454;2022-12-05T00:23:28;85.45;;;33.25;;
59028;SDS011;45919;51.420;5.454;2022-12-05T00:24:30;79.18;;;31.75;;
59028;SDS011;45919;51.420;5.454;2022-12-05T00:25:31;85.22;;;32.10;;
59028;SDS011;45919;51.420;5.454;2022-12-05T00:26:36;81.28;;;32.28;;
59028;SDS011;45919;51.420;5.454;2022-12-05T00:27:38;84.00;;;32.63;;
59028;SDS011;45919;51.420;5.454;2022-12-05T00:28:40;90.78;;;33.97;;
59028;SDS011;45919;51.420;5.454;2022-12-05T00:29:42;86.03;;;33.80;;
59028;SDS011;45919;51.420;5.454;2022-12-05T00:30:43;86.80;;;32.42;;
59028;SDS011;45919;51.420;5.454;2022-12-05T00:31:45;88.68;;;32.95;;
59028;SDS011;45919;51.420;5.454;2022-12-05T00:32:47;80.65;;;31.58;;
59028;SDS011;45919;51.420;5.454;2022-12-05T00:33:49;79.13;;;33.47;;
59028;SDS011;45919;51.420;5.454;2022-12-05T00:34:51;90.80;;;33.03;;
59028;SDS011;45919;51.420;5.454;2022-12-05T00:35:52;79.20;;;32.05;;
59028;SDS011;45919;51.420;5.454;2022-12-05T00:36:54;79.75;;;31.63;;
59028;SDS011;45919;51.420;5.454;2022-12-05T00:37:56;79.78;;;32.90;;
59028;SDS011;45919;51.420;5.454;2022-12-05T00:38:58;87.57;;;33.60;;
59028;SDS011;45919;51.420;5.454;2022-12-05T00:40:01;77.20;;;32.08;;
59028;SDS011;45919;51.420;5.454;2022-12-05T00:41:03;83.32;;;32.25;;
59028;SDS011;45919;51.420;5.454;2022-12-05T00:42:06;91.57;;;33.05;;
59028;SDS011;45919;51.420;5.454;2022-12-05T00:43:07;81.32;;;33.50;;
59028;SDS011;45919;51.420;5.454;2022-12-05T00:44:10;88.00;;;33.75;;
59028;SDS011;45919;51.420;5.454;2022-12-05T00:45:13;92.38;;;34.15;;
59028;SDS011;45919;51.420;5.454;2022-12-05T00:46:18;91.15;;;34.47;;
59028;SDS011;45919;51.420;5.454;2022-12-05T00:47:24;90.30;;;33.38;;
59028;SDS011;45919;51.420;5.454;2022-12-05T00:48:26;89.65;;;33.50;;
59028;SDS011;45919;51.420;5.454;2022-12-05T00:49:28;90.80;;;34.88;;
59028;SDS011;45919;51.420;5.454;2022-12-05T00:50:29;89.18;;;33.13;;
59028;SDS011;45919;51.420;5.454;2022-12-05T00:51:32;88.43;;;33.67;;
59028;SDS011;45919;51.420;5.454;2022-12-05T00:52:39;88.65;;;33.22;;
59028;SDS011;45919;51.420;5.454;2022-12-05T00:53:40;89.97;;;32.55;;
59028;SDS011;45919;51.420;5.454;2022-12-05T00:54:42;97.32;;;34.30;;
59028;SDS011;45919;51.420;5.454;2022-12-05T00:55:44;93.30;;;34.53;;
59028;SDS011;45919;51.420;5.454;2022-12-05T00:56:46;90.43;;;34.97;;
59028;SDS011;45919;51.420;5.454;2022-12-05T00:57:47;95.15;;;34.42;;
59028;SDS011;45919;51.420;5.454;2022-12-05T00:58:49;82.60;;;32.97;;
59028;SDS011;45919;51.420;5.454;2022-12-05T00:59:53;83.38;;;33.20;;
59028;SDS011;45919;51.420;5.454;2022-12-05T01:00:54;92.38;;;34.15;;
59028;SDS011;45919;51.420;5.454;2022-12-05T01:01:56;83.53;;;32.80;;
59028;SDS011;45919;51.420;5.454;2022-12-05T01:02:58;87.53;;;33.90;;
59028;SDS011;45919;51.420;5.454;2022-12-05T01:04:00;95.65;;;33.88;;
59028;SDS011;45919;51.420;5.454;2022-12-05T01:05:04;84.95;;;33.55;;
59028;SDS011;45919;51.420;5.454;2022-12-05T01:06:06;85.28;;;33.72;;
59028;SDS011;45919;51.420;5.454;2022-12-05T01:07:08;88.38;;;35.58;;
59028;SDS011;45919;51.420;5.454;2022-12-05T01:08:10;88.57;;;33.90;;
59028;SDS011;45919;51.420;5.454;2022-12-05T01:09:12;94.25;;;34.28;;
59028;SDS011;45919;51.420;5.454;2022-12-05T01:10:16;96.05;;;33.72;;
59028;SDS011;45919;51.420;5.454;2022-12-05T01:11:18;88.93;;;32.88;;
59028;SDS011;45919;51.420;5.454;2022-12-05T01:12:20;91.30;;;33.47;;
59028;SDS011;45919;51.420;5.454;2022-12-05T01:13:22;93.35;;;34.90;;
59028;SDS011;45919;51.420;5.454;2022-12-05T01:14:24;83.75;;;33.67;;
59028;SDS011;45919;51.420;5.454;2022-12-05T01:15:26;84.63;;;32.92;;
59028;SDS011;45919;51.420;5.454;2022-12-05T01:16:30;89.30;;;33.83;;
59028;SDS011;45919;51.420;5.454;2022-12-05T01:17:34;87.90;;;33.97;;
59028;SDS011;45919;51.420;5.454;2022-12-05T01:18:36;83.53;;;34.75;;
59028;SDS011;45919;51.420;5.454;2022-12-05T01:19:37;88.03;;;33.60;;
59028;SDS011;45919;51.420;5.454;2022-12-05T01:20:39;91.32;;;33.78;;
59028;SDS011;45919;51.420;5.454;2022-12-05T01:21:42;84.55;;;32.83;;
59028;SDS011;45919;51.420;5.454;2022-12-05T01:22:43;91.07;;;34.47;;
59028;SDS011;45919;51.420;5.454;2022-12-05T01:23:45;92.07;;;34.22;;
59028;SDS011;45919;51.420;5.454;2022-12-05T01:24:47;84.97;;;34.38;;
59028;SDS011;45919;51.420;5.454;2022-12-05T01:25:49;91.90;;;34.40;;
59028;SDS011;45919;51.420;5.454;2022-12-05T01:26:52;92.63;;;34.25;;
59028;SDS011;45919;51.420;5.454;2022-12-05T01:27:54;93.18;;;34.45;;
59028;SDS011;45919;51.420;5.454;2022-12-05T01:28:55;82.15;;;33.25;;
59028;SDS011;45919;51.420;5.454;2022-12-05T01:29:57;92.65;;;33.47;;
59028;SDS011;45919;51.420;5.454;2022-12-05T01:31:02;79.82;;;33.55;;
59028;SDS011;45919;51.420;5.454;2022-12-05T01:32:08;96.15;;;34.50;;
59028;SDS011;45919;51.420;5.454;2022-12-05T01:33:10;93.70;;;34.33;;
59028;SDS011;45919;51.420;5.454;2022-12-05T01:34:13;85.03;;;33.83;;
59028;SDS011;45919;51.420;5.454;2022-12-05T01:35:16;88.07;;;33.60;;
59028;SDS011;45919;51.420;5.454;2022-12-05T01:36:18;87.20;;;33.67;;
59028;SDS011;45919;51.420;5.454;2022-12-05T01:37:20;87.25;;;34.42;;
59028;SDS011;45919;51.420;5.454;2022-12-05T01:38:21;93.82;;;33.95;;
59028;SDS011;45919;51.420;5.454;2022-12-05T01:39:23;82.10;;;34.20;;
59028;SDS011;45919;51.420;5.454;2022-12-05T01:40:24;93.78;;;34.63;;
59028;SDS011;45919;51.420;5.454;2022-12-05T01:41:27;92.85;;;35.50;;
59028;SDS011;45919;51.420;5.454;2022-12-05T01:42:31;85.47;;;34.17;;
59028;SDS011;45919;51.420;5.454;2022-12-05T01:43:33;87.90;;;34.58;;
59028;SDS011;45919;51.420;5.454;2022-12-05T01:45:17;81.65;;;32.42;;
59028;SDS011;45919;51.420;5.454;2022-12-05T01:46:27;90.07;;;32.58;;
59028;SDS011;45919;51.420;5.454;2022-12-05T01:47:31;81.00;;;32.50;;
59028;SDS011;45919;51.420;5.454;2022-12-05T01:48:35;86.05;;;33.92;;
59028;SDS011;45919;51.420;5.454;2022-12-05T01:49:39;92.38;;;33.17;;
59028;SDS011;45919;51.420;5.454;2022-12-05T01:50:42;94.45;;;33.45;;
59028;SDS011;45919;51.420;5.454;2022-12-05T01:51:46;90.32;;;32.97;;
59028;SDS011;45919;51.420;5.454;2022-12-05T01:52:50;90.03;;;32.30;;
59028;SDS011;45919;51.420;5.454;2022-12-05T01:53:51;86.50;;;33.92;;
59028;SDS011;45919;51.420;5.454;2022-12-05T01:54:54;89.80;;;34.40;;
59028;SDS011;45919;51.420;5.454;2022-12-05T01:56:04;85.32;;;34.10;;
59028;SDS011;45919;51.420;5.454;2022-12-05T01:57:06;92.88;;;35.30;;
59028;SDS011;45919;51.420;5.454;2022-12-05T01:58:11;101.00;;;35.88;;
59028;SDS011;45919;51.420;5.454;2022-12-05T01:59:13;89.40;;;34.13;;
59028;SDS011;45919;51.420;5.454;2022-12-05T02:00:18;88.05;;;33.90;;
59028;SDS011;45919;51.420;5.454;2022-12-05T02:01:20;85.70;;;33.78;;
59028;SDS011;45919;51.420;5.454;2022-12-05T02:02:22;87.75;;;34.22;;
59028;SDS011;45919;51.420;5.454;2022-12-05T02:03:24;84.88;;;33.22;;
59028;SDS011;45919;51.420;5.454;2022-12-05T02:04:26;85.22;;;34.53;;
59028;SDS011;45919;51.420;5.454;2022-12-05T02:05:29;90.20;;;34.20;;
59028;SDS011;45919;51.420;5.454;2022-12-05T02:06:32;89.20;;;33.70;;
59028;SDS011;45919;51.420;5.454;2022-12-05T02:07:34;88.68;;;34.67;;
59028;SDS011;45919;51.420;5.454;2022-12-05T02:08:40;90.07;;;35.00;;
59028;SDS011;45919;51.420;5.454;2022-12-05T02:09:42;93.22;;;32.42;;
59028;SDS011;45919;51.420;5.454;2022-12-05T02:10:47;95.45;;;33.65;;
59028;SDS011;45919;51.420;5.454;2022-12-05T02:11:53;97.30;;;35.95;;
59028;SDS011;45919;51.420;5.454;2022-12-05T02:12:59;80.57;;;32.92;;
59028;SDS011;45919;51.420;5.454;2022-12-05T02:15:42;88.90;;;32.63;;
59028;SDS011;45919;51.420;5.454;2022-12-05T02:30:26;83.18;;;32.15;;
59028;SDS011;45919;51.420;5.454;2022-12-05T02:31:44;95.63;;;34.15;;
59028;SDS011;45919;51.420;5.454;2022-12-05T02:33:00;82.28;;;31.67;;
59028;SDS011;45919;51.420;5.454;2022-12-05T02:35:33;79.40;;;31.92;;
59028;SDS011;45919;51.420;5.454;2022-12-05T02:36:43;84.95;;;31.95;;
59028;SDS011;45919;51.420;5.454;2022-12-05T02:39:13;87.07;;;33.17;;
59028;SDS011;45919;51.420;5.454;2022-12-05T02:41:55;85.93;;;32.20;;
59028;SDS011;45919;51.420;5.454;2022-12-05T02:42:59;82.05;;;32.47;;
59028;SDS011;45919;51.420;5.454;2022-12-05T02:44:12;84.72;;;32.80;;
59028;SDS011;45919;51.420;5.454;2022-12-05T02:45:17;83.38;;;32.70;;
59028;SDS011;45919;51.420;5.454;2022-12-05T02:46:24;79.90;;;32.00;;
59028;SDS011;45919;51.420;5.454;2022-12-05T02:47:29;89.38;;;32.65;;
59028;SDS011;45919;51.420;5.454;2022-12-05T02:48:34;87.20;;;32.92;;
59028;SDS011;45919;51.420;5.454;2022-12-05T02:49:38;87.32;;;33.47;;
59028;SDS011;45919;51.420;5.454;2022-12-05T02:50:42;79.05;;;33.70;;
59028;SDS011;45919;51.420;5.454;2022-12-05T02:51:44;84.20;;;33.63;;
59028;SDS011;45919;51.420;5.454;2022-12-05T02:52:50;80.70;;;32.47;;
59028;SDS011;45919;51.420;5.454;2022-12-05T02:53:55;86.75;;;33.88;;
59028;SDS011;45919;51.420;5.454;2022-12-05T02:54:59;84.57;;;34.05;;
59028;SDS011;45919;51.420;5.454;2022-12-05T02:56:02;90.13;;;34.47;;
59028;SDS011;45919;51.420;5.454;2022-12-05T02:57:06;82.40;;;33.42;;
59028;SDS011;45919;51.420;5.454;2022-12-05T02:58:12;92.43;;;34.00;;
59028;SDS011;45919;51.420;5.454;2022-12-05T02:59:19;85.68;;;33.78;;
59028;SDS011;45919;51.420;5.454;2022-12-05T03:00:23;88.07;;;34.33;;
59028;SDS011;45919;51.420;5.454;2022-12-05T03:01:25;87.15;;;33.95;;
59028;SDS011;45919;51.420;5.454;2022-12-05T03:02:31;93.32;;;33.58;;
59028;SDS011;45919;51.420;5.454;2022-12-05T03:03:34;86.13;;;34.00;;
59028;SDS011;45919;51.420;5.454;2022-12-05T03:04:36;82.50;;;33.47;;
59028;SDS011;45919;51.420;5.454;2022-12-05T03:07:03;77.57;;;32.53;;
59028;SDS011;45919;51.420;5.454;2022-12-05T03:08:11;77.68;;;32.60;;
59028;SDS011;45919;51.420;5.454;2022-12-05T03:11:11;83.68;;;32.20;;
59028;SDS011;45919;51.420;5.454;2022-12-05T03:12:17;86.78;;;33.55;;
59028;SDS011;45919;51.420;5.454;2022-12-05T03:13:25;88.82;;;33.35;;
59028;SDS011;45919;51.420;5.454;2022-12-05T03:14:29;97.10;;;34.72;;
59028;SDS011;45919;51.420;5.454;2022-12-05T03:15:37;79.75;;;33.03;;
59028;SDS011;45919;51.420;5.454;2022-12-05T03:16:43;93.18;;;33.75;;
59028;SDS011;45919;51.420;5.454;2022-12-05T03:17:58;92.75;;;35.00;;
59028;SDS011;45919;51.420;5.454;2022-12-05T03:22:25;84.13;;;31.67;;
59028;SDS011;45919;51.420;5.454;2022-12-05T03:23:37;88.30;;;34.10;;
59028;SDS011;45919;51.420;5.454;2022-12-05T03:24:43;88.55;;;32.72;;
59028;SDS011;45919;51.420;5.454;2022-12-05T03:25:53;85.60;;;34.13;;
59028;SDS011;45919;51.420;5.454;2022-12-05T03:27:17;87.03;;;32.40;;
59028;SDS011;45919;51.420;5.454;2022-12-05T03:28:30;91.32;;;32.55;;
59028;SDS011;45919;51.420;5.454;2022-12-05T03:30:24;87.85;;;33.25;;
59028;SDS011;45919;51.420;5.454;2022-12-05T03:31:12;85.55;;;30.63;;
59028;SDS011;45919;51.420;5.454;2022-12-05T03:33:57;82.25;;;30.98;;
59028;SDS011;45919;51.420;5.454;2022-12-05T03:36:16;80.15;;;32.70;;
59028;SDS011;45919;51.420;5.454;2022-12-05T03:38:43;80.50;;;33.42;;
59028;SDS011;45919;51.420;5.454;2022-12-05T03:41:08;80.25;;;32.47;;
59028;SDS011;45919;51.420;5.454;2022-12-05T03:44:35;83.45;;;33.72;;
59028;SDS011;45919;51.420;5.454;2022-12-05T03:46:02;79.50;;;33.58;;
59028;SDS011;45919;51.420;5.454;2022-12-05T03:47:11;80.40;;;31.02;;
59028;SDS011;45919;51.420;5.454;2022-12-05T03:48:18;100.03;;;33.83;;
59028;SDS011;45919;51.420;5.454;2022-12-05T03:50:36;92.03;;;33.70;;
59028;SDS011;45919;51.420;5.454;2022-12-05T03:51:46;87.38;;;32.70;;
59028;SDS011;45919;51.420;5.454;2022-12-05T03:52:57;86.10;;;33.30;;
59028;SDS011;45919;51.420;5.454;2022-12-05T03:54:23;81.90;;;32.30;;
59028;SDS011;45919;51.420;5.454;2022-12-05T03:55:28;87.10;;;32.67;;
59028;SDS011;45919;51.420;5.454;2022-12-05T03:56:38;84.15;;;32.63;;
59028;SDS011;45919;51.420;5.454;2022-12-05T03:57:45;90.28;;;33.33;;
59028;SDS011;45919;51.420;5.454;2022-12-05T03:58:57;89.38;;;34.28;;
59028;SDS011;45919;51.420;5.454;2022-12-05T04:00:07;89.07;;;33.08;;
59028;SDS011;45919;51.420;5.454;2022-12-05T04:01:15;80.53;;;33.67;;
59028;SDS011;45919;51.420;5.454;2022-12-05T04:02:30;80.75;;;32.88;;
59028;SDS011;45919;51.420;5.454;2022-12-05T04:03:46;80.22;;;32.65;;
59028;SDS011;45919;51.420;5.454;2022-12-05T04:04:53;82.80;;;33.13;;
59028;SDS011;45919;51.420;5.454;2022-12-05T04:06:01;78.78;;;32.53;;
59028;SDS011;45919;51.420;5.454;2022-12-05T04:07:06;92.75;;;32.30;;
59028;SDS011;45919;51.420;5.454;2022-12-05T04:08:12;90.75;;;34.70;;
59028;SDS011;45919;51.420;5.454;2022-12-05T04:09:23;82.43;;;32.42;;
59028;SDS011;45919;51.420;5.454;2022-12-05T04:10:30;86.30;;;31.88;;
59028;SDS011;45919;51.420;5.454;2022-12-05T04:11:58;80.28;;;31.15;;
59028;SDS011;45919;51.420;5.454;2022-12-05T04:13:03;75.18;;;32.38;;
59028;SDS011;45919;51.420;5.454;2022-12-05T04:14:18;86.80;;;33.65;;
59028;SDS011;45919;51.420;5.454;2022-12-05T04:15:26;86.82;;;32.15;;
59028;SDS011;45919;51.420;5.454;2022-12-05T04:17:15;82.57;;;32.05;;
59028;SDS011;45919;51.420;5.454;2022-12-05T04:18:33;78.78;;;31.02;;
59028;SDS011;45919;51.420;5.454;2022-12-05T04:19:46;79.05;;;31.67;;
59028;SDS011;45919;51.420;5.454;2022-12-05T04:21:10;80.28;;;31.55;;
59028;SDS011;45919;51.420;5.454;2022-12-05T04:22:32;78.57;;;30.63;;
59028;SDS011;45919;51.420;5.454;2022-12-05T04:23:34;84.25;;;31.52;;
59028;SDS011;45919;51.420;5.454;2022-12-05T04:24:36;84.57;;;31.55;;
59028;SDS011;45919;51.420;5.454;2022-12-05T04:26:05;87.85;;;31.58;;
59028;SDS011;45919;51.420;5.454;2022-12-05T04:29:47;86.60;;;31.10;;
59028;SDS011;45919;51.420;5.454;2022-12-05T04:32:04;80.93;;;31.55;;
59028;SDS011;45919;51.420;5.454;2022-12-05T04:34:12;78.30;;;31.45;;
59028;SDS011;45919;51.420;5.454;2022-12-05T04:35:19;82.15;;;32.05;;
59028;SDS011;45919;51.420;5.454;2022-12-05T04:36:31;81.35;;;30.85;;
59028;SDS011;45919;51.420;5.454;2022-12-05T04:38:05;81.18;;;29.45;;
59028;SDS011;45919;51.420;5.454;2022-12-05T04:39:15;78.57;;;30.92;;
59028;SDS011;45919;51.420;5.454;2022-12-05T04:40:32;74.25;;;30.45;;
59028;SDS011;45919;51.420;5.454;2022-12-05T04:41:40;83.93;;;31.77;;
59028;SDS011;45919;51.420;5.454;2022-12-05T04:42:47;76.63;;;29.75;;
59028;SDS011;45919;51.420;5.454;2022-12-05T04:43:51;76.32;;;31.00;;
59028;SDS011;45919;51.420;5.454;2022-12-05T04:45:06;76.50;;;30.48;;
59028;SDS011;45919;51.420;5.454;2022-12-05T04:46:10;73.25;;;30.75;;
59028;SDS011;45919;51.420;5.454;2022-12-05T04:47:14;77.38;;;32.13;;
59028;SDS011;45919;51.420;5.454;2022-12-05T04:48:19;80.03;;;31.55;;
59028;SDS011;45919;51.420;5.454;2022-12-05T04:49:24;74.38;;;31.05;;
59028;SDS011;45919;51.420;5.454;2022-12-05T04:50:30;86.78;;;32.75;;
59028;SDS011;45919;51.420;5.454;2022-12-05T04:51:33;78.93;;;31.88;;
59028;SDS011;45919;51.420;5.454;2022-12-05T04:52:37;75.72;;;32.10;;
59028;SDS011;45919;51.420;5.454;2022-12-05T04:53:39;71.88;;;31.38;;
59028;SDS011;45919;51.420;5.454;2022-12-05T04:56:29;74.90;;;29.35;;
59028;SDS011;45919;51.420;5.454;2022-12-05T04:59:00;71.40;;;28.08;;
59028;SDS011;45919;51.420;5.454;2022-12-05T05:00:02;72.43;;;28.90;;
59028;SDS011;45919;51.420;5.454;2022-12-05T05:01:13;74.78;;;31.13;;
59028;SDS011;45919;51.420;5.454;2022-12-05T05:02:24;72.78;;;31.55;;
59028;SDS011;45919;51.420;5.454;2022-12-05T05:04:54;67.57;;;29.05;;
59028;SDS011;45919;51.420;5.454;2022-12-05T05:05:59;65.18;;;28.90;;
59028;SDS011;45919;51.420;5.454;2022-12-05T05:07:06;71.50;;;30.00;;
59028;SDS011;45919;51.420;5.454;2022-12-05T05:08:15;74.82;;;29.85;;
59028;SDS011;45919;51.420;5.454;2022-12-05T05:09:19;71.25;;;29.10;;
59028;SDS011;45919;51.420;5.454;2022-12-05T05:10:32;77.88;;;30.35;;
59028;SDS011;45919;51.420;5.454;2022-12-05T05:11:38;71.28;;;27.65;;
59028;SDS011;45919;51.420;5.454;2022-12-05T05:12:39;67.15;;;29.42;;
59028;SDS011;45919;51.420;5.454;2022-12-05T05:13:41;75.45;;;29.20;;
59028;SDS011;45919;51.420;5.454;2022-12-05T05:14:43;67.40;;;30.52;;
59028;SDS011;45919;51.420;5.454;2022-12-05T05:15:44;78.80;;;31.60;;
59028;SDS011;45919;51.420;5.454;2022-12-05T05:16:46;69.80;;;30.02;;
59028;SDS011;45919;51.420;5.454;2022-12-05T05:17:48;74.68;;;29.73;;
59028;SDS011;45919;51.420;5.454;2022-12-05T05:18:50;70.28;;;30.75;;
59028;SDS011;45919;51.420;5.454;2022-12-05T05:19:52;69.95;;;30.10;;
59028;SDS011;45919;51.420;5.454;2022-12-05T05:21:15;70.82;;;29.05;;
59028;SDS011;45919;51.420;5.454;2022-12-05T05:22:27;64.05;;;28.63;;
59028;SDS011;45919;51.420;5.454;2022-12-05T05:23:29;67.30;;;30.48;;
59028;SDS011;45919;51.420;5.454;2022-12-05T05:24:31;65.70;;;28.30;;
59028;SDS011;45919;51.420;5.454;2022-12-05T05:25:32;77.00;;;30.55;;
59028;SDS011;45919;51.420;5.454;2022-12-05T05:26:35;69.32;;;29.92;;
59028;SDS011;45919;51.420;5.454;2022-12-05T05:27:38;68.25;;;28.85;;
59028;SDS011;45919;51.420;5.454;2022-12-05T05:28:39;69.95;;;29.90;;
59028;SDS011;45919;51.420;5.454;2022-12-05T05:29:41;70.07;;;29.90;;
59028;SDS011;45919;51.420;5.454;2022-12-05T05:30:43;71.47;;;29.55;;
59028;SDS011;45919;51.420;5.454;2022-12-05T05:31:44;72.47;;;32.03;;
59028;SDS011;45919;51.420;5.454;2022-12-05T05:32:46;75.65;;;30.27;;
59028;SDS011;45919;51.420;5.454;2022-12-05T05:33:52;69.93;;;31.25;;
59028;SDS011;45919;51.420;5.454;2022-12-05T05:34:56;68.93;;;29.75;;
59028;SDS011;45919;51.420;5.454;2022-12-05T05:36:08;70.95;;;30.52;;
59028;SDS011;45919;51.420;5.454;2022-12-05T05:37:11;69.75;;;30.02;;
59028;SDS011;45919;51.420;5.454;2022-12-05T05:38:13;76.47;;;30.13;;
59028;SDS011;45919;51.420;5.454;2022-12-05T05:39:15;68.35;;;28.85;;
59028;SDS011;45919;51.420;5.454;2022-12-05T05:40:17;68.75;;;30.25;;
59028;SDS011;45919;51.420;5.454;2022-12-05T05:41:20;75.15;;;31.55;;
59028;SDS011;45919;51.420;5.454;2022-12-05T05:42:23;73.32;;;29.48;;
59028;SDS011;45919;51.420;5.454;2022-12-05T05:43:25;69.15;;;31.00;;
59028;SDS011;45919;51.420;5.454;2022-12-05T05:44:26;77.93;;;29.60;;
59028;SDS011;45919;51.420;5.454;2022-12-05T05:45:28;67.95;;;29.83;;
59028;SDS011;45919;51.420;5.454;2022-12-05T05:46:30;68.63;;;29.52;;
59028;SDS011;45919;51.420;5.454;2022-12-05T05:47:34;64.38;;;30.08;;
59028;SDS011;45919;51.420;5.454;2022-12-05T05:48:35;76.38;;;30.83;;
59028;SDS011;45919;51.420;5.454;2022-12-05T05:49:37;69.75;;;31.10;;
59028;SDS011;45919;51.420;5.454;2022-12-05T05:50:39;69.50;;;30.08;;
59028;SDS011;45919;51.420;5.454;2022-12-05T05:51:40;74.45;;;30.73;;
59028;SDS011;45919;51.420;5.454;2022-12-05T05:52:42;65.93;;;30.35;;
59028;SDS011;45919;51.420;5.454;2022-12-05T05:53:44;69.78;;;30.55;;
59028;SDS011;45919;51.420;5.454;2022-12-05T05:54:46;73.93;;;31.25;;
59028;SDS011;45919;51.420;5.454;2022-12-05T05:55:47;76.07;;;30.63;;
59028;SDS011;45919;51.420;5.454;2022-12-05T05:56:49;68.00;;;29.13;;
59028;SDS011;45919;51.420;5.454;2022-12-05T05:57:50;66.68;;;29.73;;
59028;SDS011;45919;51.420;5.454;2022-12-05T05:58:55;69.82;;;30.70;;
59028;SDS011;45919;51.420;5.454;2022-12-05T05:59:59;67.65;;;28.83;;
59028;SDS011;45919;51.420;5.454;2022-12-05T06:01:11;68.05;;;30.17;;
59028;SDS011;45919;51.420;5.454;2022-12-05T06:02:15;70.97;;;30.08;;
59028;SDS011;45919;51.420;5.454;2022-12-05T06:03:16;78.90;;;31.52;;
59028;SDS011;45919;51.420;5.454;2022-12-05T06:04:18;71.30;;;30.48;;
59028;SDS011;45919;51.420;5.454;2022-12-05T06:05:19;67.47;;;30.60;;
59028;SDS011;45919;51.420;5.454;2022-12-05T06:06:21;72.68;;;29.80;;
59028;SDS011;45919;51.420;5.454;2022-12-05T06:07:24;74.13;;;29.83;;
59028;SDS011;45919;51.420;5.454;2022-12-05T06:08:28;72.47;;;30.60;;
59028;SDS011;45919;51.420;5.454;2022-12-05T06:09:39;65.15;;;28.02;;
59028;SDS011;45919;51.420;5.454;2022-12-05T06:10:41;70.60;;;30.25;;
59028;SDS011;45919;51.420;5.454;2022-12-05T06:11:43;66.10;;;28.15;;
59028;SDS011;45919;51.420;5.454;2022-12-05T06:12:44;66.63;;;30.13;;
59028;SDS011;45919;51.420;5.454;2022-12-05T06:13:46;70.22;;;29.60;;
59028;SDS011;45919;51.420;5.454;2022-12-05T06:14:48;70.25;;;30.05;;
59028;SDS011;45919;51.420;5.454;2022-12-05T06:15:51;65.57;;;29.73;;
59028;SDS011;45919;51.420;5.454;2022-12-05T06:16:52;65.82;;;28.55;;
59028;SDS011;45919;51.420;5.454;2022-12-05T06:17:55;64.32;;;27.73;;
59028;SDS011;45919;51.420;5.454;2022-12-05T06:18:57;63.80;;;28.30;;
59028;SDS011;45919;51.420;5.454;2022-12-05T06:19:59;64.10;;;27.67;;
59028;SDS011;45919;51.420;5.454;2022-12-05T06:21:01;68.40;;;29.00;;
59028;SDS011;45919;51.420;5.454;2022-12-05T06:22:03;67.32;;;29.23;;
59028;SDS011;45919;51.420;5.454;2022-12-05T06:23:04;67.72;;;29.85;;
59028;SDS011;45919;51.420;5.454;2022-12-05T06:24:06;65.20;;;29.73;;
59028;SDS011;45919;51.420;5.454;2022-12-05T06:25:08;70.00;;;29.80;;
59028;SDS011;45919;51.420;5.454;2022-12-05T06:26:12;66.47;;;28.85;;
59028;SDS011;45919;51.420;5.454;2022-12-05T06:27:15;72.00;;;30.00;;
59028;SDS011;45919;51.420;5.454;2022-12-05T06:28:17;67.35;;;32.40;;
59028;SDS011;45919;51.420;5.454;2022-12-05T06:29:20;68.05;;;29.27;;
59028;SDS011;45919;51.420;5.454;2022-12-05T06:30:25;66.38;;;28.80;;
59028;SDS011;45919;51.420;5.454;2022-12-05T06:31:26;68.15;;;31.50;;
59028;SDS011;45919;51.420;5.454;2022-12-05T06:32:31;72.95;;;32.92;;
59028;SDS011;45919;51.420;5.454;2022-12-05T06:33:32;63.28;;;29.40;;
59028;SDS011;45919;51.420;5.454;2022-12-05T06:34:35;66.82;;;29.00;;
59028;SDS011;45919;51.420;5.454;2022-12-05T06:35:37;68.25;;;30.23;;
59028;SDS011;45919;51.420;5.454;2022-12-05T06:36:38;62.70;;;28.40;;
59028;SDS011;45919;51.420;5.454;2022-12-05T06:37:41;65.28;;;29.27;;
59028;SDS011;45919;51.420;5.454;2022-12-05T06:38:43;70.35;;;29.80;;
59028;SDS011;45919;51.420;5.454;2022-12-05T06:39:45;71.13;;;31.30;;
59028;SDS011;45919;51.420;5.454;2022-12-05T06:40:46;63.90;;;29.20;;
59028;SDS011;45919;51.420;5.454;2022-12-05T06:41:48;70.00;;;28.10;;
59028;SDS011;45919;51.420;5.454;2022-12-05T06:42:49;65.32;;;28.48;;
59028;SDS011;45919;51.420;5.454;2022-12-05T06:43:52;65.95;;;29.05;;
59028;SDS011;45919;51.420;5.454;2022-12-05T06:44:57;66.53;;;30.20;;
59028;SDS011;45919;51.420;5.454;2022-12-05T06:48:14;58.13;;;25.80;;
59028;SDS011;45919;51.420;5.454;2022-12-05T06:49:16;63.00;;;27.73;;
59028;SDS011;45919;51.420;5.454;2022-12-05T06:50:18;74.32;;;31.20;;
59028;SDS011;45919;51.420;5.454;2022-12-05T06:51:20;66.57;;;26.98;;
59028;SDS011;45919;51.420;5.454;2022-12-05T06:52:21;76.45;;;33.28;;
59028;SDS011;45919;51.420;5.454;2022-12-05T06:53:23;69.28;;;30.90;;
59028;SDS011;45919;51.420;5.454;2022-12-05T06:54:25;71.07;;;32.05;;
59028;SDS011;45919;51.420;5.454;2022-12-05T06:55:27;69.85;;;30.83;;
59028;SDS011;45919;51.420;5.454;2022-12-05T06:56:28;65.90;;;29.20;;
59028;SDS011;45919;51.420;5.454;2022-12-05T06:57:30;66.65;;;29.25;;
59028;SDS011;45919;51.420;5.454;2022-12-05T06:58:32;71.80;;;29.67;;
59028;SDS011;45919;51.420;5.454;2022-12-05T06:59:33;66.70;;;29.23;;
59028;SDS011;45919;51.420;5.454;2022-12-05T07:00:35;69.13;;;28.58;;
59028;SDS011;45919;51.420;5.454;2022-12-05T07:01:55;61.80;;;26.95;;
59028;SDS011;45919;51.420;5.454;2022-12-05T07:02:57;66.88;;;29.05;;
59028;SDS011;45919;51.420;5.454;2022-12-05T07:03:58;61.63;;;26.88;;
59028;SDS011;45919;51.420;5.454;2022-12-05T07:05:01;63.70;;;28.85;;
59028;SDS011;45919;51.420;5.454;2022-12-05T07:06:03;69.32;;;28.50;;
59028;SDS011;45919;51.420;5.454;2022-12-05T07:07:06;70.75;;;31.05;;
59028;SDS011;45919;51.420;5.454;2022-12-05T07:08:08;64.80;;;28.50;;